Time;durP1;ratioP1;P1;durP2;ratioP2;P2;SDS_P1;SDS_P2;PMS_P1;PMS_P2;Temp;Humidity;BMP_temperature;BMP_pressure;BME280_temperature;BME280_humidity;BME280_pressure;Samples;Min_cycle;Max_cycle;Signal;HPM_P1;HPM_P2
2021/11/25 00:02:21;;;;;;;30.10;18.90;;;;;;;5.49;80.61;100044.17;230731;1191;140072;-72
2021/11/25 00:07:25;;;;;;;26.60;17.30;;;;;;;5.49;80.67;100038.07;231011;1191;140107;-71
2021/11/25 00:12:32;;;;;;;29.60;18.10;;;;;;;5.43;80.53;100036.52;230564;1191;139872;-71
2021/11/25 00:17:40;;;;;;;24.60;17.20;;;;;;;5.42;80.12;100031.84;229989;1191;140134;-70
2021/11/25 00:22:47;;;;;;;28.90;18.70;;;;;;;5.42;80.07;100029.89;230006;1190;139783;-73
2021/11/25 00:27:52;;;;;;;;;;;;;;;5.35;80.23;100021.66;229356;1192;140211;-72
2021/11/25 00:33:01;;;;;;;33.40;18.40;;;;;;;5.28;80.24;100024.49;230437;1191;125112;-73
2021/11/25 00:38:46;;;;;;;33.90;18.10;;;;;;;5.25;80.38;100029.10;229737;1192;140451;-69
2021/11/25 00:43:55;;;;;;;29.40;17.00;;;;;;;5.26;80.19;100021.77;229155;1193;140592;-69
2021/11/25 00:49:00;;;;;;;37.40;19.60;;;;;;;5.24;80.21;100020.77;230083;1191;141358;-72
2021/11/25 00:54:06;;;;;;;29.90;18.20;;;;;;;5.17;80.01;100016.25;229193;1192;140256;-70
2021/11/25 01:00:12;;;;;;;31.30;18.30;;;;;;;5.09;80.05;100008.40;229077;1191;139624;-72
2021/11/25 01:05:56;;;;;;;;;;;;;;;;;;;;;
2021/11/25 01:11:24;;;;;;;;;;;;;;;;;;;;;
2021/11/25 01:16:29;;;;;;;;;;;;;;;4.94;80.11;99982.23;229800;1191;139091;-72
2021/11/25 01:21:37;;;;;;;29.40;17.40;;;;;;;4.89;79.85;99972.73;230467;1191;124929;-71
2021/11/25 01:26:43;;;;;;;33.90;18.40;;;;;;;4.84;79.73;99972.66;230304;1191;138902;-72
2021/11/25 01:31:47;;;;;;;31.80;18.90;;;;;;;4.79;79.57;99967.98;229631;1191;139632;-72
2021/11/25 01:36:56;;;;;;;32.10;17.50;;;;;;;4.78;79.34;99961.44;229659;1192;140726;-72
2021/11/25 01:42:07;;;;;;;32.10;17.40;;;;;;;4.78;79.50;99948.27;230977;1191;139814;-73
2021/11/25 01:47:26;;;;;;;;;;;;;;;;;;;;;
2021/11/25 01:52:34;;;;;;;30.40;16.50;;;;;;;4.71;79.28;99934.43;231162;1192;140461;-73
2021/11/25 01:57:38;;;;;;;27.40;15.40;;;;;;;4.66;79.37;99928.70;231100;1191;139788;-71
2021/11/25 02:02:44;;;;;;;30.50;18.80;;;;;;;4.65;79.29;99926.05;229955;1191;152177;-71
2021/11/25 02:07:49;;;;;;;29.60;18.10;;;;;;;4.62;79.06;99923.19;231350;1190;139036;-72
2021/11/25 02:12:54;;;;;;;24.50;18.30;;;;;;;4.55;78.82;99922.77;230561;1191;139219;-72
2021/11/25 02:18:18;;;;;;;26.40;19.80;;;;;;;4.43;78.73;99912.57;230810;1191;139962;-70
2021/11/25 02:23:27;;;;;;;26.90;15.20;;;;;;;4.34;78.65;99916.22;229419;1192;139906;-71
2021/11/25 02:28:39;;;;;;;32.00;17.60;;;;;;;4.27;78.77;99908.49;229977;1191;141183;-71
2021/11/25 02:34:06;;;;;;;23.50;16.60;;;;;;;4.19;78.85;99894.05;230517;1192;141442;-74
2021/11/25 02:39:11;;;;;;;29.20;17.60;;;;;;;3.99;78.23;99881.69;230077;1192;141298;-74
2021/11/25 02:44:16;;;;;;;29.10;17.70;;;;;;;3.80;78.21;99881.58;229328;1192;139562;-72
2021/11/25 02:49:32;;;;;;;28.00;17.50;;;;;;;3.58;78.19;99874.19;229597;1192;140332;-75
2021/11/25 02:54:37;;;;;;;29.10;19.00;;;;;;;3.45;78.33;99867.73;228932;1192;139615;-70
2021/11/25 02:59:43;;;;;;;30.90;18.80;;;;;;;3.32;78.18;99863.38;229239;1191;141049;-69
2021/11/25 03:04:50;;;;;;;35.10;20.30;;;;;;;3.16;78.18;99860.02;229035;1192;164563;-70
2021/11/25 03:09:58;;;;;;;30.40;19.30;;;;;;;2.99;78.38;99854.17;230011;1191;139532;-71
2021/11/25 03:15:03;;;;;;;35.30;18.40;;;;;;;2.82;78.24;99849.88;230550;1191;139720;-73
2021/11/25 03:20:26;;;;;;;;;;;;;;;;;;;;;
2021/11/25 03:25:32;;;;;;;36.40;21.50;;;;;;;2.62;78.27;99831.59;229660;1191;139928;-72
2021/11/25 03:30:38;;;;;;;32.60;20.20;;;;;;;2.52;78.50;99824.32;230758;1191;138827;-72
2021/11/25 03:35:43;;;;;;;41.30;20.90;;;;;;;2.39;78.46;99810.59;229563;1191;139867;-73
2021/11/25 03:40:48;;;;;;;33.50;19.30;;;;;;;2.26;78.42;99805.84;229970;1191;140253;-74
2021/11/25 03:45:53;;;;;;;41.60;20.70;;;;;;;2.05;77.84;99794.45;230359;1193;139926;-72
2021/11/25 03:51:39;;;;;;;32.70;20.20;;;;;;;1.98;78.12;99785.83;230189;1192;139735;-73
2021/11/25 03:56:42;;;;;;;35.70;21.60;;;;;;;1.92;78.69;99775.48;230882;1192;138681;-74
2021/11/25 04:01:52;;;;;;;43.90;24.70;;;;;;;1.84;78.38;99764.85;230638;1192;139336;-72
2021/11/25 04:06:57;;;;;;;37.10;20.10;;;;;;;1.73;78.07;99752.95;231000;1191;140760;-72
2021/11/25 04:12:01;;;;;;;32.40;19.40;;;;;;;1.47;77.77;99746.89;230024;1192;140347;-72
2021/11/25 04:17:25;;;;;;;37.00;23.50;;;;;;;1.28;77.96;99747.25;229777;1192;140801;-71
2021/11/25 04:22:33;;;;;;;31.10;18.70;;;;;;;1.12;78.29;99734.73;229195;1192;141293;-69
2021/11/25 04:27:58;;;;;;;38.70;22.20;;;;;;;0.92;78.17;99722.18;229094;1192;139035;-71
2021/11/25 04:39:07;;;;;;;;;;;;;;;;;;;;;
2021/11/25 04:44:21;;;;;;;37.60;21.10;;;;;;;0.54;78.81;99709.86;229279;1192;139871;-71
2021/11/25 04:49:46;;;;;;;31.90;22.60;;;;;;;0.40;78.89;99694.63;229953;1192;141257;-71
2021/11/25 04:55:05;;;;;;;36.30;21.00;;;;;;;0.30;78.79;99683.50;229324;1191;140752;-70
2021/11/25 05:00:10;;;;;;;39.90;21.90;;;;;;;0.20;79.19;99679.34;229261;1190;139146;-70
2021/11/25 05:05:15;;;;;;;37.10;21.80;;;;;;;0.12;79.12;99678.02;229657;1191;139415;-71
2021/11/25 05:10:26;;;;;;;36.90;23.80;;;;;;;0.07;79.45;99670.86;229902;1191;140569;-71
2021/11/25 05:15:31;;;;;;;39.40;23.70;;;;;;;0.02;79.56;99663.94;229319;1192;140518;-71
2021/11/25 05:20:37;;;;;;;57.70;28.70;;;;;;;-0.03;80.03;99656.20;230620;1190;140100;-72
2021/11/25 05:25:41;;;;;;;72.50;38.50;;;;;;;-0.02;79.81;99648.27;229395;1191;221823;-71
2021/11/25 05:30:45;;;;;;;50.60;30.20;;;;;;;0.00;79.87;99642.23;229073;1190;141024;-69
2021/11/25 05:35:50;;;;;;;42.80;26.80;;;;;;;0.03;80.30;99634.86;230126;1192;140932;-71
2021/11/25 05:40:58;;;;;;;37.60;26.60;;;;;;;0.02;80.26;99631.56;230207;1192;140423;-70
2021/11/25 05:46:18;;;;;;;49.50;26.20;;;;;;;-0.02;80.35;99627.95;230026;1191;138855;-70
2021/11/25 05:51:22;;;;;;;44.50;25.10;;;;;;;-0.03;80.10;99617.22;231172;1190;139712;-70
2021/11/25 05:56:26;;;;;;;54.30;26.80;;;;;;;-0.02;79.83;99606.64;230187;1192;140525;-70
2021/11/25 06:01:30;;;;;;;36.10;21.10;;;;;;;-0.03;80.20;99599.50;230113;1191;139893;-69
2021/11/25 06:06:35;;;;;;;41.10;24.80;;;;;;;-0.06;80.46;99592.95;231158;1191;139534;-68
2021/11/25 06:11:39;;;;;;;41.80;26.20;;;;;;;0.05;80.40;99591.91;231039;1184;140741;-71
2021/11/25 06:16:43;;;;;;;44.90;24.50;;;;;;;0.14;80.47;99589.39;230999;1191;140265;-71
2021/11/25 06:21:49;;;;;;;40.20;24.20;;;;;;;0.17;80.41;99587.31;230481;1191;140119;-68
2021/11/25 06:26:59;;;;;;;42.80;25.60;;;;;;;0.19;80.90;99589.00;229822;1191;140557;-71
2021/11/25 06:32:04;;;;;;;40.80;25.40;;;;;;;0.27;80.35;99587.73;230386;1191;151281;-72
2021/11/25 06:37:10;;;;;;;46.70;27.40;;;;;;;0.35;80.55;99591.36;230132;1192;142149;-71
2021/11/25 06:42:15;;;;;;;49.60;25.70;;;;;;;0.36;80.43;99582.71;229515;1192;140451;-70
2021/11/25 06:47:19;;;;;;;43.70;25.40;;;;;;;0.33;80.69;99573.35;229313;1192;140539;-69
2021/11/25 06:52:24;;;;;;;44.90;25.20;;;;;;;0.31;80.52;99571.46;229020;1192;143509;-69
2021/11/25 06:57:28;;;;;;;45.50;25.40;;;;;;;0.29;80.45;99568.91;229281;1192;139937;-68
2021/11/25 07:02:33;;;;;;;46.50;25.40;;;;;;;0.34;80.23;99571.52;230142;1191;141328;-68
2021/11/25 07:07:47;;;;;;;48.70;27.50;;;;;;;0.41;80.55;99571.45;229313;1192;140452;-69
2021/11/25 07:12:52;;;;;;;51.60;26.90;;;;;;;0.45;80.73;99561.06;228129;1192;140039;-69
2021/11/25 07:17:58;;;;;;;47.70;24.80;;;;;;;0.49;80.88;99563.25;229014;1192;142337;-70
2021/11/25 07:23:02;;;;;;;44.50;24.10;;;;;;;0.56;81.01;99557.33;229892;1192;140582;-70
2021/11/25 07:28:07;;;;;;;58.20;24.40;;;;;;;0.64;80.88;99552.66;229395;1192;140282;-67
2021/11/25 07:33:40;;;;;;;41.50;23.40;;;;;;;0.74;80.96;99550.53;228966;1192;140576;-70
2021/11/25 07:38:49;;;;;;;45.30;26.10;;;;;;;0.83;80.78;99539.64;230580;1192;138951;-72
2021/11/25 07:43:58;;;;;;;44.30;26.80;;;;;;;0.89;81.15;99530.61;230218;1192;140521;-68
2021/11/25 07:49:09;;;;;;;39.70;22.50;;;;;;;0.98;80.78;99525.52;230057;1191;139159;-70
2021/11/25 07:54:14;;;;;;;47.70;24.40;;;;;;;1.11;80.64;99519.77;229659;1192;139724;-70
2021/11/25 07:59:18;;;;;;;38.40;22.40;;;;;;;1.25;80.63;99519.02;231068;1192;139740;-70
2021/11/25 08:04:26;;;;;;;39.20;24.20;;;;;;;1.31;80.68;99514.56;231003;1192;140031;-70
2021/11/25 08:09:30;;;;;;;35.60;21.30;;;;;;;1.42;80.61;99505.27;230517;1191;141093;-72
2021/11/25 08:14:36;;;;;;;32.30;20.20;;;;;;;1.53;80.39;99496.79;231027;1190;141526;-71
2021/11/25 08:19:43;;;;;;;43.50;22.20;;;;;;;1.68;80.36;99486.56;230750;1192;142719;-69
2021/11/25 08:24:59;;;;;;;;;;;;;;;;;;;;;
2021/11/25 08:30:18;;;;;;;34.60;18.80;;;;;;;1.92;80.26;99476.52;230858;1190;141138;-71
2021/11/25 08:35:31;;;;;;;31.40;20.20;;;;;;;2.03;80.16;99472.04;230272;1191;139566;-71
2021/11/25 08:40:36;;;;;;;39.60;21.60;;;;;;;2.14;80.11;99466.65;230165;1192;140269;-72
2021/11/25 08:45:54;;;;;;;;;;;;;;;;;;;;;
2021/11/25 08:51:05;;;;;;;35.80;21.60;;;;;;;2.20;79.67;99450.64;230213;1192;139977;-69
2021/11/25 08:56:10;;;;;;;42.30;25.70;;;;;;;2.25;79.54;99451.19;229458;1190;140574;-70
2021/11/25 09:01:15;;;;;;;32.80;23.40;;;;;;;2.33;79.26;99448.84;229222;1192;140680;-71
2021/11/25 09:06:21;;;;;;;34.50;22.50;;;;;;;2.40;79.49;99439.96;229431;1190;140948;-72
2021/11/25 09:11:50;;;;;;;38.60;22.10;;;;;;;2.47;79.36;99431.86;229872;1192;141316;-70
2021/11/25 09:17:03;;;;;;;39.60;23.40;;;;;;;2.52;78.80;99428.46;230535;1190;140265;-71
2021/11/25 09:22:08;;;;;;;30.20;18.90;;;;;;;2.61;78.86;99423.25;229158;1192;139222;-72
2021/11/25 09:27:13;;;;;;;37.80;24.60;;;;;;;2.69;78.89;99417.98;230277;1190;139025;-69
2021/11/25 09:32:18;;;;;;;34.30;20.10;;;;;;;2.77;78.50;99407.60;229902;1190;138956;-71
2021/11/25 09:37:28;;;;;;;35.50;22.50;;;;;;;2.88;78.37;99388.20;229578;1192;140827;-70
2021/11/25 09:42:34;;;;;;;32.00;20.70;;;;;;;3.01;78.27;99375.89;230082;1192;140448;-68
2021/11/25 09:48:32;;;;;;;;;;;;;;;;;;;;;
2021/11/25 09:53:38;;;;;;;33.10;21.80;;;;;;;3.22;77.81;99349.80;228707;1192;141031;-72
2021/11/25 09:58:44;;;;;;;31.30;18.60;;;;;;;3.33;77.71;99338.42;230201;1192;140792;-69
2021/11/25 10:03:51;;;;;;;39.70;24.00;;;;;;;3.40;77.62;99329.95;229486;1192;140949;-70
2021/11/25 10:08:57;;;;;;;42.00;21.50;;;;;;;3.49;77.42;99322.48;230142;1191;141272;-71
2021/11/25 10:14:08;;;;;;;37.60;21.50;;;;;;;3.57;77.08;99318.02;229389;1191;140693;-71
2021/11/25 10:19:27;;;;;;;33.80;20.10;;;;;;;3.69;77.08;99314.66;230423;1192;139377;-71
2021/11/25 10:24:36;;;;;;;30.40;20.30;;;;;;;3.79;76.86;99302.71;229561;1192;140711;-72
2021/11/25 10:29:40;;;;;;;38.80;20.80;;;;;;;3.86;76.60;99292.63;229707;1191;140402;-72
2021/11/25 10:40:26;;;;;;;30.10;16.80;;;;;;;3.94;76.31;99280.67;229178;1192;139847;-72
2021/11/25 10:45:55;;;;;;;34.50;19.90;;;;;;;3.90;75.90;99271.21;230032;1191;139200;-73
2021/11/25 10:51:00;;;;;;;37.70;23.60;;;;;;;4.01;75.75;99265.67;230632;1191;139588;-73
2021/11/25 10:56:06;;;;;;;31.80;19.30;;;;;;;4.05;75.48;99257.88;229636;1192;140113;-72
2021/11/25 11:01:11;;;;;;;30.50;18.40;;;;;;;4.11;75.70;99244.38;229758;1192;140113;-72
2021/11/25 11:06:30;;;;;;;33.60;21.50;;;;;;;4.14;75.46;99235.20;229528;1191;141460;-69
2021/11/25 11:11:37;;;;;;;32.40;22.60;;;;;;;4.20;75.43;99222.09;228340;1190;142606;-72
2021/11/25 11:16:46;;;;;;;30.60;19.90;;;;;;;4.22;75.39;99219.13;229164;1192;139938;-70
2021/11/25 11:21:53;;;;;;;31.20;17.70;;;;;;;4.26;75.51;99214.86;228998;1191;141143;-71
2021/11/25 11:27:02;;;;;;;32.50;19.50;;;;;;;4.33;75.14;99211.40;229098;1192;143591;-69
2021/11/25 11:32:07;;;;;;;29.00;18.00;;;;;;;4.37;75.23;99204.45;229780;1192;140012;-68
2021/11/25 11:37:13;;;;;;;24.70;16.30;;;;;;;4.41;75.27;99193.61;229916;1191;141807;-69
2021/11/25 11:42:18;;;;;;;32.60;18.10;;;;;;;4.48;75.29;99185.08;229585;1190;141562;-69
2021/11/25 11:47:24;;;;;;;27.10;15.60;;;;;;;4.63;75.13;99172.20;230277;1190;140555;-69
2021/11/25 11:52:29;;;;;;;29.00;18.00;;;;;;;4.70;75.06;99157.60;229598;1191;140807;-72
2021/11/25 11:57:38;;;;;;;;;;;;;;;4.66;74.56;99146.23;230231;1192;139606;-73
2021/11/25 12:02:56;;;;;;;27.10;15.70;;;;;;;4.65;75.05;99143.73;231755;1190;125853;-73
2021/11/25 12:08:25;;;;;;;28.70;16.90;;;;;;;4.70;74.78;99129.48;230894;1191;139923;-73
2021/11/25 12:13:38;;;;;;;36.90;21.20;;;;;;;4.76;74.07;99120.84;230905;1190;140303;-72
2021/11/25 12:19:17;;;;;;;34.00;19.70;;;;;;;4.77;74.43;99108.25;230913;1192;143578;-71
2021/11/25 12:24:59;;;;;;;;;;;;;;;;;;;;;
2021/11/25 12:30:14;;;;;;;30.20;18.40;;;;;;;4.88;74.21;99095.54;231251;1192;139777;-73
2021/11/25 12:35:34;;;;;;;32.50;19.30;;;;;;;4.93;74.02;99081.67;230390;1191;140030;-72
2021/11/25 12:40:42;;;;;;;36.60;20.50;;;;;;;4.93;74.29;99073.67;230201;1190;139924;-71
2021/11/25 12:45:56;;;;;;;34.90;19.90;;;;;;;4.90;73.82;99063.91;230227;1191;139825;-70
2021/11/25 12:51:04;;;;;;;33.00;20.00;;;;;;;4.90;74.11;99060.21;229391;1192;139125;-74
2021/11/25 12:56:29;;;;;;;31.60;18.70;;;;;;;4.93;73.98;99058.33;230273;1191;140605;-72
2021/11/25 13:02:03;;;;;;;34.80;18.90;;;;;;;4.86;74.03;99053.67;229356;1190;139766;-71
2021/11/25 13:07:09;;;;;;;35.70;17.60;;;;;;;4.79;74.00;99040.23;229201;1192;138895;-71
2021/11/25 13:12:14;;;;;;;32.70;21.40;;;;;;;4.74;73.80;99032.27;229777;1190;140935;-72
2021/11/25 13:17:22;;;;;;;35.70;18.50;;;;;;;4.69;74.09;99030.09;228862;1192;138908;-74
2021/11/25 13:22:27;;;;;;;34.30;17.90;;;;;;;4.62;73.96;99033.56;229785;1192;139552;-72
2021/11/25 13:27:32;;;;;;;33.10;19.40;;;;;;;4.53;74.22;99024.39;229684;1192;140664;-72
2021/11/25 13:32:41;;;;;;;35.60;19.20;;;;;;;4.47;73.91;99016.66;229940;1190;141272;-71
2021/11/25 13:37:54;;;;;;;38.50;19.90;;;;;;;4.46;74.41;99020.08;229743;1190;140314;-73
2021/11/25 13:43:08;;;;;;;34.50;20.90;;;;;;;4.46;74.20;99020.59;230022;1192;139035;-72
2021/11/25 13:48:20;;;;;;;32.00;18.30;;;;;;;4.42;74.23;99017.05;230124;1191;139963;-73
2021/11/25 13:53:28;;;;;;;34.10;17.50;;;;;;;4.37;74.14;99013.01;229915;1191;139512;-71
2021/11/25 13:58:32;;;;;;;37.50;21.10;;;;;;;4.41;74.42;99012.05;229732;1192;139711;-76
2021/11/25 14:03:37;;;;;;;38.20;21.20;;;;;;;4.41;74.35;99014.33;229314;1192;138999;-74
2021/11/25 14:08:42;;;;;;;38.20;20.20;;;;;;;4.36;74.36;99003.06;230745;1191;161276;-73
2021/11/25 14:14:15;;;;;;;33.70;20.60;;;;;;;4.35;74.39;99006.36;230849;1191;140824;-72
2021/11/25 14:19:35;;;;;;;41.50;23.10;;;;;;;4.31;74.59;98996.31;230790;1192;140813;-72
2021/11/25 14:25:03;;;;;;;40.80;22.20;;;;;;;4.33;74.44;98991.11;229710;1192;140268;-70
2021/11/25 14:30:27;;;;;;;35.90;22.20;;;;;;;4.36;74.40;98993.20;228730;1192;140125;-70
2021/11/25 14:35:38;;;;;;;36.40;22.10;;;;;;;4.34;74.62;98997.31;229408;1191;140506;-72
2021/11/25 14:40:44;;;;;;;40.70;20.10;;;;;;;4.32;74.67;98989.41;230547;1192;139303;-71
2021/11/25 14:45:57;;;;;;;39.20;19.30;;;;;;;4.27;74.32;98978.33;228831;1192;139923;-70
2021/11/25 14:51:12;;;;;;;43.00;19.20;;;;;;;4.22;74.52;98979.67;230031;1191;139656;-70
2021/11/25 14:56:27;;;;;;;44.30;22.50;;;;;;;4.23;74.45;98977.96;229166;1192;141157;-71
2021/11/25 15:01:39;;;;;;;36.40;21.30;;;;;;;4.19;74.56;98987.67;230108;1192;141288;-74
2021/11/25 15:06:51;;;;;;;33.70;19.60;;;;;;;4.13;74.02;98991.89;229569;1191;139481;-73
2021/11/25 15:11:58;;;;;;;33.60;19.50;;;;;;;4.08;74.48;98998.85;229209;1192;139425;-74
2021/11/25 15:17:03;;;;;;;38.90;21.50;;;;;;;4.04;74.61;98997.33;229371;1191;140582;-70
2021/11/25 15:22:07;;;;;;;35.10;19.10;;;;;;;4.01;74.09;98996.20;229095;1192;139158;-73
2021/11/25 15:27:13;;;;;;;19.80;11.10;;;;;;;3.91;73.86;98987.17;229389;1191;139275;-76
2021/11/25 15:32:32;;;;;;;37.20;22.20;;;;;;;3.82;73.86;98984.37;229790;1191;139429;-73
2021/11/25 15:37:36;;;;;;;23.40;15.10;;;;;;;3.78;73.62;98974.52;229760;1191;141413;-72
2021/11/25 15:42:50;;;;;;;35.40;19.60;;;;;;;3.79;73.08;98976.71;230858;1191;139917;-72
2021/11/25 15:47:53;;;;;;;53.50;29.00;;;;;;;3.80;73.12;98970.75;230303;1191;141796;-75
2021/11/25 15:52:57;;;;;;;32.90;19.00;;;;;;;3.80;73.05;98968.68;228926;1192;140345;-72
2021/11/25 15:58:02;;;;;;;39.60;27.30;;;;;;;3.76;73.04;98962.85;229210;1192;142805;-68
2021/11/25 16:03:13;;;;;;;38.00;26.60;;;;;;;3.72;73.08;98957.55;229543;1191;140301;-72
2021/11/25 16:08:19;;;;;;;36.70;26.60;;;;;;;3.69;73.17;98950.47;229359;1177;140483;-68
2021/11/25 16:13:29;;;;;;;35.00;19.40;;;;;;;3.66;73.01;98952.33;231107;1191;140029;-70
2021/11/25 16:18:41;;;;;;;39.90;21.80;;;;;;;3.69;72.98;98948.64;231054;1192;140930;-71
2021/11/25 16:24:12;;;;;;;43.50;23.20;;;;;;;3.71;73.08;98950.74;230591;1191;140716;-68
2021/11/25 16:29:19;;;;;;;34.50;19.80;;;;;;;3.71;73.03;98946.23;229904;1192;139390;-71
2021/11/25 16:34:30;;;;;;;36.20;19.80;;;;;;;3.71;72.94;98944.42;230440;1192;138861;-67
2021/11/25 16:39:37;;;;;;;54.40;23.00;;;;;;;3.69;72.95;98943.48;229650;1192;141201;-69
2021/11/25 16:44:41;;;;;;;42.00;21.70;;;;;;;3.70;72.75;98939.19;229498;1192;139550;-72
2021/11/25 16:49:46;;;;;;;36.60;22.70;;;;;;;3.75;73.00;98941.60;230187;1192;139245;-71
2021/11/25 16:54:50;;;;;;;36.10;21.70;;;;;;;3.81;73.07;98934.85;229500;1192;139759;-72
2021/11/25 16:59:57;;;;;;;32.70;21.10;;;;;;;3.82;72.96;98946.24;229091;1192;139764;-70
2021/11/25 17:05:25;;;;;;;;;;;;;;;;;;;;;
2021/11/25 17:10:44;;;;;;;40.60;21.90;;;;;;;3.75;72.81;98934.02;229161;1192;139665;-72
2021/11/25 17:15:55;;;;;;;32.80;19.40;;;;;;;3.73;73.09;98915.49;228620;1192;138943;-69
2021/11/25 17:21:03;;;;;;;42.10;20.90;;;;;;;3.69;72.94;98891.02;229443;1192;140458;-72
2021/11/25 17:26:18;;;;;;;45.30;24.40;;;;;;;3.71;72.95;98902.08;229849;1192;139186;-72
2021/11/25 17:31:24;;;;;;;38.20;20.50;;;;;;;3.70;73.15;98908.25;229907;1192;139710;-73
2021/11/25 17:36:35;;;;;;;43.20;23.90;;;;;;;3.67;72.84;98890.52;229764;1192;139627;-72
2021/11/25 17:41:41;;;;;;;39.60;22.50;;;;;;;3.64;73.12;98886.17;228687;1192;139526;-71
2021/11/25 17:46:49;;;;;;;38.20;20.50;;;;;;;3.65;72.91;98883.68;229970;1192;140380;-72
2021/11/25 17:51:56;;;;;;;42.50;23.50;;;;;;;3.69;72.99;98890.45;229761;1192;139429;-71
2021/11/25 17:57:02;;;;;;;36.70;22.00;;;;;;;3.74;73.17;98908.69;230186;1192;140383;-72
2021/11/25 18:02:24;;;;;;;40.70;21.90;;;;;;;3.78;73.30;98926.27;230870;1192;139606;-71
2021/11/25 18:07:31;;;;;;;36.00;20.90;;;;;;;3.76;73.21;98933.05;229144;1186;139256;-70
2021/11/25 18:12:36;;;;;;;45.00;21.90;;;;;;;3.70;73.02;98925.52;230880;1192;139909;-73
2021/11/25 18:17:42;;;;;;;39.80;23.40;;;;;;;3.71;73.05;98914.25;230184;1192;141454;-71
2021/11/25 18:22:49;;;;;;;19.20;12.50;;;;;;;3.73;73.07;98898.38;230905;1192;140150;-72
2021/11/25 18:27:55;;;;;;;39.80;23.50;;;;;;;3.67;72.92;98901.70;230522;1192;138867;-69
2021/11/25 18:33:00;;;;;;;39.20;21.60;;;;;;;3.64;73.12;98896.02;230315;1192;138989;-72
2021/11/25 18:38:05;;;;;;;41.20;22.30;;;;;;;3.64;72.99;98900.56;230409;1192;139349;-69
2021/11/25 18:43:10;;;;;;;40.00;24.20;;;;;;;3.67;72.93;98901.50;229974;1192;139553;-69
2021/11/25 18:48:29;;;;;;;46.70;25.00;;;;;;;3.70;72.94;98899.70;229576;1192;140993;-70
2021/11/25 18:53:34;;;;;;;45.90;27.20;;;;;;;3.71;73.19;98896.45;229878;1192;139758;-70
2021/11/25 18:58:41;;;;;;;36.60;22.00;;;;;;;3.67;73.03;98888.81;228793;1192;140744;-69
2021/11/25 19:03:46;;;;;;;48.40;23.20;;;;;;;3.62;73.01;98888.57;228965;1186;139581;-73
2021/11/25 19:09:00;;;;;;;51.20;26.40;;;;;;;3.62;72.93;98884.71;229373;1192;141001;-72
2021/11/25 19:14:05;;;;;;;49.20;26.70;;;;;;;3.59;73.20;98884.00;229552;1192;140185;-74
2021/11/25 19:19:44;;;;;;;50.40;27.00;;;;;;;3.57;73.28;98885.30;229515;1192;139546;-74
2021/11/25 19:24:51;;;;;;;55.60;25.80;;;;;;;3.56;73.37;98880.56;229432;1192;139105;-74
2021/11/25 19:29:58;;;;;;;49.80;29.10;;;;;;;3.51;73.23;98890.35;229810;1193;139329;-73
2021/11/25 19:35:09;;;;;;;43.50;24.40;;;;;;;3.49;73.10;98893.85;229766;1192;139361;-72
2021/11/25 19:40:17;;;;;;;49.40;27.00;;;;;;;3.45;72.94;98887.95;229235;1192;140098;-72
2021/11/25 19:45:24;;;;;;;41.50;24.80;;;;;;;3.40;73.23;98891.23;228194;1192;140024;-73
2021/11/25 19:50:38;;;;;;;41.20;26.80;;;;;;;3.31;73.19;98890.08;229693;1192;139883;-70
2021/11/25 19:55:46;;;;;;;40.60;25.00;;;;;;;3.28;73.10;98885.79;228244;1192;140027;-71
2021/11/25 20:00:55;;;;;;;36.70;22.60;;;;;;;3.23;72.80;98884.18;228808;1193;140239;-70
2021/11/25 20:07:16;;;;;;;33.10;20.60;;;;;;;3.19;73.07;98878.89;229398;1193;139241;-69
2021/11/25 20:11:55;;;;;;;40.80;25.90;;;;;;;3.10;72.98;98890.38;230598;1192;139499;-70
2021/11/25 20:16:59;;;;;;;43.60;22.80;;;;;;;3.03;72.97;98901.55;230438;1193;139684;-70
2021/11/25 20:22:08;;;;;;;42.40;25.60;;;;;;;3.04;72.84;98903.49;230503;1193;139974;-72
2021/11/25 20:27:14;;;;;;;49.00;27.70;;;;;;;3.03;73.03;98905.40;230614;1192;139632;-72
2021/11/25 20:32:20;;;;;;;45.00;28.90;;;;;;;3.02;72.86;98902.36;230158;1192;138890;-72
2021/11/25 20:37:25;;;;;;;45.90;27.50;;;;;;;2.98;72.89;98893.98;230083;1192;140049;-72
2021/11/25 20:42:30;;;;;;;54.50;29.10;;;;;;;3.01;72.96;98898.12;229083;1192;139473;-71
2021/11/25 20:47:38;;;;;;;;;;;;;;;2.99;73.07;98905.69;229802;1192;139513;-74
2021/11/25 20:52:53;;;;;;;48.80;29.00;;;;;;;2.91;73.28;98906.34;230077;1192;125120;-73
2021/11/25 20:58:09;;;;;;;36.80;22.20;;;;;;;2.89;73.42;98906.02;229620;1192;143316;-73
2021/11/25 21:03:14;;;;;;;48.40;27.00;;;;;;;2.87;73.31;98897.84;229607;1192;141217;-73
2021/11/25 21:08:18;;;;;;;50.50;30.90;;;;;;;2.91;73.56;98901.61;229443;1193;141627;-73
2021/11/25 21:13:24;;;;;;;49.10;30.30;;;;;;;2.90;73.37;98900.39;229708;1192;139281;-73
2021/11/25 21:18:46;;;;;;;39.00;22.90;;;;;;;2.88;73.71;98897.39;229852;1192;141449;-70
2021/11/25 21:23:51;;;;;;;47.10;28.10;;;;;;;2.85;73.59;98892.42;229274;1192;139024;-73
2021/11/25 21:29:09;;;;;;;22.70;14.50;;;;;;;2.80;73.66;98882.34;228701;1192;144171;-68
2021/11/25 21:34:14;;;;;;;50.70;28.10;;;;;;;2.75;73.87;98874.23;229343;1192;139815;-73
2021/11/25 21:39:23;;;;;;;54.60;30.10;;;;;;;2.77;73.77;98879.23;229643;1192;141080;-70
2021/11/25 21:44:30;;;;;;;53.30;31.90;;;;;;;2.76;73.92;98879.04;228950;1192;140464;-69
2021/11/25 21:49:36;;;;;;;49.00;28.20;;;;;;;2.76;74.03;98872.48;229900;1192;139174;-69
2021/11/25 21:54:41;;;;;;;50.00;27.90;;;;;;;2.75;74.06;98868.79;229522;1192;140937;-69
2021/11/25 21:59:47;;;;;;;52.70;29.60;;;;;;;2.76;73.95;98878.21;229767;1192;140283;-68
2021/11/25 22:04:52;;;;;;;53.90;31.00;;;;;;;2.77;73.94;98870.52;228765;1193;139946;-69
2021/11/25 22:09:57;;;;;;;49.10;29.60;;;;;;;2.72;73.95;98865.17;229280;1192;139931;-67
2021/11/25 22:15:05;;;;;;;41.80;24.80;;;;;;;2.68;74.11;98852.14;228954;1192;141783;-74
2021/11/25 22:20:15;;;;;;;53.00;28.60;;;;;;;2.62;74.14;98855.75;228500;1192;139905;-74
2021/11/25 22:25:20;;;;;;;54.80;33.10;;;;;;;2.64;74.18;98856.44;230289;1192;141484;-71
2021/11/25 22:30:26;;;;;;;50.80;30.90;;;;;;;2.66;74.34;98854.41;230467;1193;141311;-70
2021/11/25 22:35:31;;;;;;;41.80;24.70;;;;;;;2.66;74.26;98852.10;230940;1192;139095;-71
2021/11/25 22:40:54;;;;;;;58.40;28.80;;;;;;;2.63;74.34;98845.71;230698;1192;139323;-72
2021/11/25 22:45:58;;;;;;;50.60;28.30;;;;;;;2.68;74.28;98840.23;230801;1192;140813;-68
2021/11/25 22:51:02;;;;;;;57.00;30.30;;;;;;;2.72;74.33;98843.30;230423;1192;139780;-67
2021/11/25 22:56:08;;;;;;;48.30;27.50;;;;;;;2.74;74.41;98837.64;230840;1192;138908;-68
2021/11/25 23:01:18;;;;;;;42.40;26.40;;;;;;;2.73;74.37;98837.52;229126;1192;139545;-67
2021/11/25 23:06:23;;;;;;;46.90;24.80;;;;;;;2.70;74.27;98834.94;229519;1193;140059;-73
2021/11/25 23:11:34;;;;;;;49.10;26.40;;;;;;;2.73;74.27;98825.21;229283;1193;139187;-69
2021/11/25 23:16:42;;;;;;;48.90;26.80;;;;;;;2.73;74.26;98834.33;229772;1192;139244;-67
2021/11/25 23:21:46;;;;;;;45.20;26.70;;;;;;;2.71;74.33;98830.64;229608;1192;139421;-67
2021/11/25 23:27:10;;;;;;;35.60;20.90;;;;;;;2.66;74.30;98821.91;229585;1192;139062;-73
2021/11/25 23:32:34;;;;;;;44.90;24.50;;;;;;;2.62;74.28;98814.14;229425;1192;139935;-69
2021/11/25 23:37:42;;;;;;;48.00;27.20;;;;;;;2.62;74.24;98802.64;229590;1192;141847;-69
2021/11/25 23:42:50;;;;;;;62.20;34.90;;;;;;;2.61;74.45;98795.27;229038;1192;139237;-68
2021/11/25 23:47:55;;;;;;;;;;;;;;;2.60;74.48;98796.45;229860;1192;139809;-70
2021/11/25 23:53:00;;;;;;;45.10;24.20;;;;;;;2.58;74.39;98798.73;229086;1192;125808;-70
2021/11/25 23:58:04;;;;;;;42.80;24.90;;;;;;;2.64;74.50;98801.55;229274;1192;139578;-68
